createdAt,value
2022-12-12T00:00:48.564Z,224.60
2022-12-12T00:03:08.647Z,275.67
2022-12-12T00:05:28.769Z,210.05
2022-12-12T00:07:48.614Z,264.92
2022-12-12T00:10:09.081Z,256.25
2022-12-12T00:12:28.840Z,120.72
2022-12-12T00:14:48.424Z,314.67
2022-12-12T00:17:08.040Z,202.88
2022-12-12T00:19:27.697Z,234.25
2022-12-12T00:21:47.451Z,283.15
2022-12-12T00:24:07.330Z,332.27
2022-12-12T00:26:30.747Z,280.27
2022-12-12T00:28:50.861Z,222.02
2022-12-12T00:31:10.964Z,334.88
2022-12-12T00:33:30.847Z,297.77
2022-12-12T00:35:54.622Z,425.95
2022-12-12T00:38:14.603Z,35.65
2022-12-12T00:40:35.644Z,97.38
2022-12-12T00:42:55.295Z,214.85
2022-12-12T00:45:15.284Z,122.82
2022-12-12T00:47:35.286Z,335.50
2022-12-12T00:49:55.025Z,532.95
2022-12-12T00:52:15.274Z,141.18
2022-12-12T00:54:35.078Z,55.17
2022-12-12T00:56:54.901Z,182.90
2022-12-12T00:59:14.949Z,137.45
2022-12-12T01:01:35.245Z,173.65
2022-12-12T01:03:55.545Z,201.90
2022-12-12T01:06:16.274Z,250.75
2022-12-12T01:08:37.720Z,140.93
2022-12-12T01:10:57.670Z,64.30
2022-12-12T01:13:17.402Z,118.45
2022-12-12T01:15:37.288Z,124.20
2022-12-12T01:17:57.094Z,184.93
2022-12-12T01:20:20.202Z,216.82
2022-12-12T01:22:39.922Z,157.13
2022-12-12T01:25:00.090Z,244.15
2022-12-12T01:27:19.814Z,399.95
2022-12-12T01:29:39.379Z,314.83
2022-12-12T01:31:58.938Z,473.00
2022-12-12T01:34:19.265Z,156.75
2022-12-12T01:36:40.047Z,82.10
2022-12-12T01:39:00.080Z,68.65
2022-12-12T01:41:20.675Z,66.43
2022-12-12T01:43:40.520Z,190.98
2022-12-12T01:46:02.805Z,99.10
2022-12-12T01:48:29.719Z,100.18
2022-12-12T01:50:51.310Z,102.63
2022-12-12T01:53:15.389Z,155.05
2022-12-12T01:55:35.556Z,78.28
2022-12-12T01:57:55.401Z,81.28
2022-12-12T02:00:15.637Z,73.13
2022-12-12T02:02:36.163Z,236.48
2022-12-12T02:04:57.517Z,164.82
2022-12-12T02:07:17.971Z,112.40
2022-12-12T02:09:38.596Z,88.07
2022-12-12T02:11:58.670Z,130.68
2022-12-12T02:14:23.780Z,170.98
2022-12-12T02:16:52.808Z,145.15
2022-12-12T02:19:37.690Z,128.90
2022-12-12T02:22:09.006Z,253.18
2022-12-12T02:25:05.564Z,138.68
2022-12-12T02:27:31.062Z,149.10
2022-12-12T02:29:54.163Z,140.23
2022-12-12T02:32:13.793Z,204.65
2022-12-12T02:34:37.918Z,149.25
2022-12-12T02:37:16.438Z,271.13
2022-12-12T02:39:44.971Z,177.60
2022-12-12T02:42:13.825Z,226.45
2022-12-12T02:44:44.819Z,162.77
2022-12-12T02:47:25.914Z,188.98
2022-12-12T02:50:13.408Z,119.97
2022-12-12T02:52:33.965Z,109.57
2022-12-12T02:54:53.452Z,116.25
2022-12-12T02:57:22.142Z,246.65
2022-12-12T02:59:46.819Z,100.03
2022-12-12T03:02:40.970Z,129.05
2022-12-12T03:05:51.518Z,146.68
2022-12-12T03:08:32.739Z,111.07
2022-12-12T03:11:03.800Z,133.95
2022-12-12T03:13:35.607Z,87.00
2022-12-12T03:16:21.092Z,110.10
2022-12-12T03:18:57.334Z,91.88
2022-12-12T03:21:21.827Z,107.80
2022-12-12T03:23:48.732Z,392.90
2022-12-12T03:26:11.276Z,180.02
2022-12-12T03:28:38.240Z,192.40
2022-12-12T03:31:03.606Z,119.35
2022-12-12T03:33:41.087Z,32.35
2022-12-12T03:36:21.580Z,151.02
2022-12-12T03:38:56.119Z,143.38
2022-12-12T03:41:20.504Z,90.07
2022-12-12T03:43:45.965Z,179.45
2022-12-12T03:46:31.028Z,179.77
2022-12-12T03:48:59.020Z,175.93
2022-12-12T03:51:30.777Z,171.10
2022-12-12T03:54:07.420Z,186.77
2022-12-12T03:56:32.688Z,149.82
2022-12-12T03:59:07.131Z,171.07
2022-12-12T04:01:51.159Z,216.95
2022-12-12T04:04:39.138Z,250.90
2022-12-12T04:07:14.913Z,111.57
2022-12-12T04:09:53.576Z,100.82
2022-12-12T04:12:32.039Z,196.57
2022-12-12T04:15:00.995Z,168.90
2022-12-12T04:17:29.260Z,271.92
2022-12-12T04:20:22.077Z,83.82
2022-12-12T04:23:10.131Z,140.88
2022-12-12T04:25:30.379Z,102.47
2022-12-12T04:27:54.442Z,119.63
2022-12-12T04:30:15.587Z,191.07
2022-12-12T04:33:04.086Z,115.80
2022-12-12T04:35:31.268Z,159.50
2022-12-12T04:37:57.113Z,84.55
2022-12-12T04:40:33.201Z,79.45
2022-12-12T04:43:08.233Z,121.20
2022-12-12T04:45:32.461Z,60.25
2022-12-12T04:47:55.629Z,51.85
2022-12-12T04:50:18.377Z,52.30
2022-12-12T04:52:40.709Z,35.50
2022-12-12T04:55:17.431Z,34.50
2022-12-12T04:57:47.596Z,36.58
2022-12-12T05:00:09.513Z,38.03
2022-12-12T05:02:41.055Z,32.80
2022-12-12T05:05:17.005Z,35.20
2022-12-12T05:07:45.922Z,99.15
2022-12-12T05:10:10.135Z,33.72
2022-12-12T05:12:38.007Z,75.63
2022-12-12T05:14:57.758Z,87.85
2022-12-12T05:17:24.668Z,181.38
2022-12-12T05:19:44.720Z,46.13
2022-12-12T05:22:05.233Z,45.28
2022-12-12T05:24:30.108Z,54.03
2022-12-12T05:26:49.776Z,63.70
2022-12-12T05:29:11.132Z,309.13
2022-12-12T05:31:31.012Z,99.10
2022-12-12T05:33:50.865Z,161.18
2022-12-12T05:36:11.462Z,136.88
2022-12-12T05:38:31.337Z,100.97
2022-12-12T05:40:51.013Z,97.97
2022-12-12T05:43:10.628Z,82.55
2022-12-12T05:45:30.720Z,201.60
2022-12-12T05:47:50.550Z,54.78
2022-12-12T05:50:10.534Z,60.33
2022-12-12T05:52:30.168Z,113.88
2022-12-12T05:54:49.743Z,61.13
2022-12-12T05:57:09.352Z,79.32
2022-12-12T05:59:30.313Z,169.30
2022-12-12T06:01:49.981Z,188.88
2022-12-12T06:04:09.690Z,35.75
2022-12-12T06:06:29.671Z,38.58
2022-12-12T06:08:50.902Z,34.33
2022-12-12T06:11:10.705Z,36.22
2022-12-12T06:13:30.421Z,195.98
2022-12-12T06:15:50.179Z,106.07
2022-12-12T06:18:11.508Z,85.18
2022-12-12T06:20:31.858Z,45.13
2022-12-12T06:22:54.032Z,35.63
2022-12-12T06:25:14.608Z,31.27
2022-12-12T06:27:34.585Z,59.97
2022-12-12T06:29:54.686Z,43.63
2022-12-12T06:32:15.058Z,34.20
2022-12-12T06:34:36.269Z,30.58
2022-12-12T06:36:56.152Z,30.15
2022-12-12T06:39:15.708Z,25.30
2022-12-12T06:41:36.447Z,28.83
2022-12-12T06:43:56.418Z,28.35
2022-12-12T06:46:28.341Z,29.45
2022-12-12T06:48:49.644Z,26.25
2022-12-12T06:51:15.649Z,15.82
2022-12-12T06:53:35.759Z,13.73
2022-12-12T06:55:55.668Z,15.55
2022-12-12T06:58:15.373Z,14.18
2022-12-12T07:00:35.871Z,15.05
2022-12-12T07:02:55.705Z,19.30
2022-12-12T07:05:16.029Z,29.73
2022-12-12T07:07:36.071Z,33.72
2022-12-12T07:09:55.635Z,36.38
2022-12-12T07:12:15.325Z,34.35
2022-12-12T07:14:37.282Z,34.85
2022-12-12T07:16:57.018Z,36.50
2022-12-12T07:19:16.622Z,35.13
2022-12-12T07:21:37.727Z,46.33
2022-12-12T07:23:57.494Z,31.92
2022-12-12T07:26:20.878Z,35.67
2022-12-12T07:28:41.095Z,34.08
2022-12-12T07:31:06.494Z,35.75
2022-12-12T07:33:35.793Z,31.65
2022-12-12T07:36:01.476Z,32.10
2022-12-12T07:38:21.186Z,31.08
2022-12-12T07:40:41.141Z,38.03
2022-12-12T07:43:01.020Z,34.80
2022-12-12T07:45:20.928Z,33.83
2022-12-12T07:47:40.670Z,30.63
2022-12-12T07:50:00.251Z,31.67
2022-12-12T07:52:20.820Z,29.08
2022-12-12T07:54:40.417Z,15.32
2022-12-12T07:56:59.952Z,17.65
2022-12-12T07:59:19.979Z,14.50
2022-12-12T08:01:40.399Z,15.75
2022-12-12T08:04:01.201Z,12.50
2022-12-12T08:06:22.733Z,11.77
2022-12-12T08:08:43.849Z,12.75
2022-12-12T08:11:05.792Z,12.77
2022-12-12T08:13:25.607Z,13.48
2022-12-12T08:15:45.812Z,15.30
2022-12-12T08:18:05.925Z,15.20
2022-12-12T08:20:26.407Z,17.52
2022-12-12T08:22:46.294Z,13.85
2022-12-12T08:25:07.109Z,15.55
2022-12-12T08:27:27.357Z,14.15
2022-12-12T08:29:46.947Z,14.80
2022-12-12T08:32:06.669Z,15.52
2022-12-12T08:34:26.829Z,13.93
2022-12-12T08:36:46.993Z,13.60
2022-12-12T08:39:12.189Z,11.63
2022-12-12T08:41:34.090Z,12.90
2022-12-12T08:43:53.938Z,13.98
2022-12-12T08:46:18.139Z,12.90
2022-12-12T08:48:38.447Z,13.27
2022-12-12T08:50:58.748Z,12.05
2022-12-12T08:53:18.545Z,13.18
2022-12-12T08:55:38.681Z,12.30
2022-12-12T08:57:58.178Z,13.38
2022-12-12T09:00:18.950Z,16.33
2022-12-12T09:02:39.093Z,18.35
2022-12-12T09:04:59.061Z,18.98
2022-12-12T09:07:18.644Z,15.18
2022-12-12T09:09:38.282Z,14.15
2022-12-12T09:11:58.374Z,12.40
2022-12-12T09:14:18.162Z,12.57
2022-12-12T09:16:38.427Z,10.93
2022-12-12T09:18:58.324Z,12.23
2022-12-12T09:21:18.662Z,11.13
2022-12-12T09:23:38.807Z,12.80
2022-12-12T09:26:03.140Z,11.85
2022-12-12T09:28:25.286Z,12.48
2022-12-12T09:30:46.130Z,17.38
2022-12-12T09:33:06.344Z,16.83
2022-12-12T09:35:25.962Z,12.02
2022-12-12T09:37:45.781Z,11.02
2022-12-12T09:40:07.035Z,11.43
2022-12-12T09:42:29.970Z,14.48
2022-12-12T09:44:52.368Z,11.88
2022-12-12T09:47:18.467Z,13.57
2022-12-12T09:49:53.813Z,13.82
2022-12-12T09:52:29.356Z,12.23
2022-12-12T09:54:50.765Z,11.30
2022-12-12T09:57:32.752Z,14.35
2022-12-12T10:00:17.387Z,14.10
2022-12-12T10:02:48.315Z,20.83
2022-12-12T10:05:34.534Z,24.08
2022-12-12T10:07:54.364Z,15.80
2022-12-12T10:10:43.497Z,9.82
2022-12-12T10:13:06.051Z,9.75
2022-12-12T10:17:48.041Z,12.70
2022-12-12T10:20:19.983Z,15.57
2022-12-12T10:22:48.906Z,13.82
2022-12-12T10:25:20.248Z,10.13
2022-12-12T10:27:40.305Z,7.93
2022-12-12T10:30:06.906Z,7.32
2022-12-12T10:32:39.399Z,6.35
2022-12-12T10:35:28.718Z,9.40
2022-12-12T10:38:12.518Z,10.93
2022-12-12T10:41:03.750Z,9.52
2022-12-12T10:43:40.263Z,8.93
2022-12-12T10:46:27.699Z,15.68
2022-12-12T10:48:48.246Z,13.30
2022-12-12T10:51:14.518Z,9.40
2022-12-12T10:53:34.983Z,9.25
2022-12-12T10:55:59.944Z,6.43
2022-12-12T10:58:25.216Z,8.43
2022-12-12T11:00:47.862Z,7.80
2022-12-12T11:03:40.358Z,10.05
2022-12-12T11:06:05.771Z,8.85
2022-12-12T11:08:34.510Z,7.63
2022-12-12T11:11:09.506Z,7.43
2022-12-12T11:13:30.440Z,6.68
2022-12-12T11:15:56.134Z,6.30
2022-12-12T11:18:21.526Z,8.32
2022-12-12T11:20:48.011Z,8.18
2022-12-12T11:23:18.442Z,6.90
2022-12-12T11:25:38.477Z,6.47
2022-12-12T11:28:06.570Z,5.80
2022-12-12T11:30:31.089Z,5.78
2022-12-12T11:32:54.577Z,6.22
2022-12-12T11:35:28.791Z,6.60
2022-12-12T11:37:53.918Z,6.47
2022-12-12T11:40:29.431Z,7.10
2022-12-12T11:42:49.774Z,6.25
2022-12-12T11:45:10.392Z,9.70
2022-12-12T11:47:42.420Z,75.22
2022-12-12T11:50:15.076Z,22.75
2022-12-12T11:52:35.048Z,12.27
2022-12-12T11:54:55.335Z,7.25
2022-12-12T11:57:30.089Z,6.70
2022-12-12T11:59:58.674Z,8.27
2022-12-12T12:02:40.408Z,6.10
2022-12-12T12:05:12.606Z,7.18
2022-12-12T12:07:50.400Z,8.15
2022-12-12T12:10:31.832Z,7.38
2022-12-12T12:13:18.795Z,11.05
2022-12-12T12:16:11.237Z,9.38
2022-12-12T12:18:37.117Z,8.57
2022-12-12T12:21:12.989Z,10.50
2022-12-12T12:23:42.554Z,8.52
2022-12-12T12:26:18.292Z,8.82
2022-12-12T12:28:44.449Z,7.18
2022-12-12T12:31:20.455Z,8.75
2022-12-12T12:34:01.421Z,8.20
2022-12-12T12:36:28.376Z,9.70
2022-12-12T12:39:23.607Z,7.72
2022-12-12T12:42:14.778Z,22.45
2022-12-12T12:45:11.535Z,10.02
2022-12-12T12:47:31.706Z,9.20
2022-12-12T12:49:59.005Z,12.98
2022-12-12T12:52:38.177Z,8.93
2022-12-12T12:54:59.333Z,7.78
2022-12-12T12:57:31.065Z,7.80
2022-12-12T12:59:55.643Z,6.43
2022-12-12T13:02:37.167Z,7.57
2022-12-12T13:05:25.121Z,8.15
2022-12-12T13:08:13.619Z,5.95
2022-12-12T13:10:36.109Z,6.47
2022-12-12T13:13:09.384Z,5.67
2022-12-12T13:15:58.070Z,10.55
2022-12-12T13:18:18.165Z,7.68
2022-12-12T13:20:42.457Z,7.13
2022-12-12T13:23:30.399Z,7.03
2022-12-12T13:26:05.594Z,6.57
2022-12-12T13:28:58.690Z,7.00
2022-12-12T13:31:24.435Z,8.95
2022-12-12T13:33:52.569Z,8.73
2022-12-12T13:36:12.330Z,8.95
2022-12-12T13:38:33.384Z,9.05
2022-12-12T13:41:07.316Z,10.00
2022-12-12T13:43:32.775Z,11.07
2022-12-12T13:45:53.399Z,10.02
2022-12-12T13:48:44.521Z,10.15
2022-12-12T13:51:31.356Z,9.43
2022-12-12T13:54:13.847Z,10.38
2022-12-12T13:56:40.390Z,13.52
2022-12-12T13:59:00.675Z,12.38
2022-12-12T14:01:26.964Z,11.95
2022-12-12T14:03:47.005Z,11.30
2022-12-12T14:06:10.027Z,13.88
2022-12-12T14:08:36.013Z,12.23
2022-12-12T14:11:06.807Z,12.60
2022-12-12T14:13:44.711Z,8.63
2022-12-12T14:16:17.233Z,8.10
2022-12-12T14:18:39.294Z,7.50
2022-12-12T14:21:12.244Z,9.18
2022-12-12T14:23:43.575Z,10.48
2022-12-12T14:26:29.067Z,24.13
2022-12-12T14:29:17.904Z,18.38
2022-12-12T14:31:40.985Z,15.80
2022-12-12T14:34:27.150Z,33.00
2022-12-12T14:37:18.230Z,18.27
2022-12-12T14:39:55.869Z,13.60
2022-12-12T14:42:20.482Z,30.88
2022-12-12T14:44:45.312Z,16.08
2022-12-12T14:47:09.386Z,28.88
2022-12-12T14:49:29.075Z,26.98
2022-12-12T14:51:51.376Z,13.90
2022-12-12T14:54:23.073Z,12.80
2022-12-12T14:57:00.872Z,14.38
2022-12-12T14:59:32.104Z,21.67
2022-12-12T15:02:06.286Z,25.58
2022-12-12T15:04:38.247Z,23.42
2022-12-12T15:07:20.569Z,17.08
2022-12-12T15:09:46.691Z,16.17
2022-12-12T15:12:09.549Z,47.83
2022-12-12T15:14:29.218Z,13.18
2022-12-12T15:16:59.766Z,22.45
2022-12-12T15:19:25.664Z,24.95
2022-12-12T15:21:46.384Z,20.42
2022-12-12T15:24:13.203Z,27.85
2022-12-12T15:26:32.938Z,27.88
2022-12-12T15:28:53.053Z,18.70
2022-12-12T15:31:16.219Z,18.48
2022-12-12T15:33:37.893Z,54.38
2022-12-12T15:36:04.265Z,36.05
2022-12-12T15:38:24.483Z,29.83
2022-12-12T15:40:50.637Z,36.30
2022-12-12T15:43:19.780Z,42.28
2022-12-12T15:45:43.275Z,27.38
2022-12-12T15:48:06.036Z,19.88
2022-12-12T15:50:46.009Z,17.98
2022-12-12T15:53:17.908Z,16.85
2022-12-12T15:55:38.060Z,12.80
2022-12-12T15:57:58.153Z,33.28
2022-12-12T16:00:38.947Z,46.33
2022-12-12T16:03:21.815Z,37.60
2022-12-12T16:05:41.574Z,24.63
2022-12-12T16:08:36.524Z,24.65
2022-12-12T16:10:58.092Z,23.30
2022-12-12T16:13:17.778Z,26.13
2022-12-12T16:15:37.724Z,24.02
2022-12-12T16:18:12.283Z,19.38
2022-12-12T16:20:33.441Z,17.80
2022-12-12T16:22:52.978Z,16.10
2022-12-12T16:25:18.680Z,14.27
2022-12-12T16:27:38.620Z,12.80
2022-12-12T16:29:58.347Z,13.20
2022-12-12T16:32:19.948Z,13.40
2022-12-12T16:34:41.329Z,11.57
2022-12-12T16:37:01.275Z,8.60
2022-12-12T16:39:21.123Z,10.07
2022-12-12T16:41:41.406Z,11.43
2022-12-12T16:44:01.358Z,32.63
2022-12-12T16:46:24.105Z,14.10
2022-12-12T16:48:44.037Z,14.00
2022-12-12T16:51:06.138Z,17.50
2022-12-12T16:53:26.562Z,17.88
2022-12-12T16:55:49.209Z,17.27
2022-12-12T16:58:09.511Z,17.00
2022-12-12T17:00:29.852Z,15.73
2022-12-12T17:02:49.669Z,12.15
2022-12-12T17:05:17.416Z,22.90
2022-12-12T17:07:36.940Z,24.45
2022-12-12T17:09:56.641Z,27.85
2022-12-12T17:12:16.775Z,31.50
2022-12-12T17:14:36.934Z,44.70
2022-12-12T17:16:56.747Z,32.95
2022-12-12T17:19:17.008Z,33.67
2022-12-12T17:21:36.896Z,37.13
2022-12-12T17:23:56.624Z,38.70
2022-12-12T17:26:16.494Z,32.10
2022-12-12T17:28:36.390Z,28.02
2022-12-12T17:30:56.254Z,25.58
2022-12-12T17:33:17.650Z,27.27
2022-12-12T17:35:38.332Z,21.48
2022-12-12T17:37:58.685Z,20.75
2022-12-12T17:40:18.311Z,24.02
2022-12-12T17:42:38.476Z,25.35
2022-12-12T17:44:58.945Z,30.13
2022-12-12T17:47:18.656Z,30.38
2022-12-12T17:49:38.689Z,32.88
2022-12-12T17:51:58.667Z,38.35
2022-12-12T17:54:18.486Z,43.75
2022-12-12T17:56:38.440Z,30.20
2022-12-12T17:58:57.995Z,48.63
2022-12-12T18:01:23.309Z,34.08
2022-12-12T18:03:43.847Z,29.15
2022-12-12T18:06:03.850Z,29.58
2022-12-12T18:08:23.552Z,28.92
2022-12-12T18:10:44.591Z,32.47
2022-12-12T18:13:04.309Z,26.98
2022-12-12T18:15:24.823Z,21.98
2022-12-12T18:17:44.507Z,31.65
2022-12-12T18:20:04.523Z,29.42
2022-12-12T18:22:24.132Z,22.35
2022-12-12T18:24:43.523Z,23.52
2022-12-12T18:27:03.173Z,31.48
2022-12-12T18:29:23.874Z,35.70
2022-12-12T18:31:43.891Z,26.70
2022-12-12T18:34:04.655Z,28.35
2022-12-12T18:36:26.746Z,32.83
2022-12-12T18:38:47.895Z,22.17
2022-12-12T18:41:08.649Z,24.48
2022-12-12T18:43:29.431Z,21.70
2022-12-12T18:45:49.798Z,43.05
2022-12-12T18:48:09.568Z,34.67
2022-12-12T18:50:29.224Z,32.40
2022-12-12T18:52:48.839Z,24.60
2022-12-12T18:55:08.724Z,26.50
2022-12-12T18:57:28.729Z,27.73
2022-12-12T18:59:48.200Z,39.15
2022-12-12T19:02:11.823Z,38.30
2022-12-12T19:04:31.715Z,44.28
2022-12-12T19:07:56.598Z,25.55
2022-12-12T19:10:18.283Z,15.75
2022-12-12T19:12:37.862Z,19.17
2022-12-12T19:17:37.685Z,23.85
2022-12-12T19:19:57.600Z,22.73
2022-12-12T19:22:43.945Z,27.85
2022-12-12T19:24:57.446Z,26.33
2022-12-12T19:27:17.017Z,28.90
2022-12-12T19:29:36.862Z,27.15
2022-12-12T19:31:58.677Z,25.70
2022-12-12T19:34:18.654Z,27.33
2022-12-12T19:36:38.934Z,22.77
2022-12-12T19:38:59.843Z,18.77
2022-12-12T19:41:21.852Z,21.60
2022-12-12T19:43:43.100Z,23.33
2022-12-12T19:46:15.268Z,20.08
2022-12-12T19:48:36.130Z,19.17
2022-12-12T19:50:55.820Z,20.17
2022-12-12T19:53:15.405Z,21.90
2022-12-12T19:55:35.152Z,29.42
2022-12-12T19:57:54.730Z,24.02
2022-12-12T20:00:19.104Z,24.20
2022-12-12T20:02:38.829Z,24.70
2022-12-12T20:04:58.985Z,22.50
2022-12-12T20:07:19.017Z,36.85
2022-12-12T20:09:38.488Z,32.05
2022-12-12T20:12:02.244Z,27.73
2022-12-12T20:14:24.217Z,26.77
2022-12-12T20:16:44.452Z,24.77
2022-12-12T20:19:04.484Z,20.42
2022-12-12T20:24:07.419Z,28.90
2022-12-12T20:26:29.933Z,34.05
2022-12-12T20:28:50.889Z,37.33
2022-12-12T20:31:17.462Z,35.03
2022-12-12T20:33:38.473Z,37.33
2022-12-12T20:36:06.336Z,37.13
2022-12-12T20:38:28.612Z,50.80
2022-12-12T20:40:48.465Z,37.43
2022-12-12T20:43:08.114Z,37.58
2022-12-12T20:45:27.866Z,41.38
2022-12-12T20:47:47.566Z,33.15
2022-12-12T20:50:07.754Z,23.90
2022-12-12T20:52:28.509Z,16.25
2022-12-12T20:54:48.194Z,18.48
2022-12-12T20:57:07.888Z,18.15
2022-12-12T20:59:27.514Z,21.60
2022-12-12T21:01:47.772Z,20.40
2022-12-12T21:04:08.693Z,23.17
2022-12-12T21:06:31.805Z,32.70
2022-12-12T21:08:52.585Z,24.05
2022-12-12T21:11:15.163Z,17.70
2022-12-12T21:13:35.688Z,18.55
2022-12-12T21:15:55.589Z,18.65
2022-12-12T21:18:15.238Z,23.63
2022-12-12T21:20:35.449Z,26.55
2022-12-12T21:22:55.099Z,27.05
2022-12-12T21:25:14.990Z,31.70
2022-12-12T21:27:34.767Z,31.92
2022-12-12T21:29:54.627Z,23.90
2022-12-12T21:32:14.395Z,27.40
2022-12-12T21:34:33.936Z,24.17
2022-12-12T21:36:54.453Z,25.15
2022-12-12T21:39:14.486Z,27.52
2022-12-12T21:41:34.698Z,22.02
2022-12-12T21:43:58.850Z,24.30
2022-12-12T21:46:21.395Z,22.75
2022-12-12T21:48:41.454Z,23.48
2022-12-12T21:51:02.956Z,28.50
2022-12-12T21:53:34.614Z,27.02
2022-12-12T21:55:58.523Z,28.10
2022-12-12T21:58:18.063Z,26.92
2022-12-12T22:00:41.949Z,27.00
2022-12-12T22:03:02.146Z,27.58
2022-12-12T22:05:23.254Z,27.75
2022-12-12T22:07:42.883Z,25.05
2022-12-12T22:10:11.348Z,35.95
2022-12-12T22:12:33.676Z,26.50
2022-12-12T22:14:53.188Z,24.23
2022-12-12T22:17:13.650Z,23.88
2022-12-12T22:19:33.369Z,26.63
2022-12-12T22:21:54.177Z,25.52
2022-12-12T22:24:16.533Z,19.60
2022-12-12T22:26:39.829Z,21.17
2022-12-12T22:31:22.774Z,19.15
2022-12-12T22:33:42.771Z,20.38
2022-12-12T22:36:07.605Z,23.00
2022-12-12T22:38:27.591Z,21.85
2022-12-12T22:40:54.486Z,26.85
2022-12-12T22:43:14.440Z,23.77
2022-12-12T22:45:35.520Z,25.42
2022-12-12T22:47:55.275Z,24.77
2022-12-12T22:50:15.553Z,28.65
2022-12-12T22:52:35.633Z,23.42
2022-12-12T22:54:55.330Z,26.92
2022-12-12T22:57:15.526Z,24.08
2022-12-12T22:59:35.228Z,25.33
2022-12-12T23:01:57.060Z,21.15
2022-12-12T23:04:17.064Z,23.15
2022-12-12T23:06:37.392Z,24.63
2022-12-12T23:09:06.664Z,26.85
2022-12-12T23:11:28.649Z,31.35
2022-12-12T23:13:49.030Z,18.83
2022-12-12T23:16:11.992Z,23.92
2022-12-12T23:18:32.091Z,31.77
2022-12-12T23:20:51.877Z,25.73
2022-12-12T23:23:11.973Z,29.83
2022-12-12T23:25:31.491Z,21.05
2022-12-12T23:27:51.564Z,21.15
2022-12-12T23:30:11.442Z,20.80
2022-12-12T23:32:31.277Z,26.85
2022-12-12T23:34:50.752Z,25.70
2022-12-12T23:37:10.396Z,24.75
2022-12-12T23:39:29.961Z,21.13
2022-12-12T23:41:51.136Z,20.27
2022-12-12T23:44:16.102Z,18.30
2022-12-12T23:46:36.590Z,20.25
2022-12-12T23:49:14.074Z,18.55
2022-12-12T23:51:36.402Z,20.65
2022-12-12T23:53:57.738Z,16.17
2022-12-12T23:56:17.613Z,22.42
2022-12-12T23:58:37.502Z,22.13
